createdAt,value
2018-11-23T00:00:35.275Z,46.80
2018-11-23T00:03:06.076Z,49.20
2018-11-23T00:05:36.471Z,43.33
2018-11-23T00:08:06.044Z,43.43
2018-11-23T00:10:35.528Z,43.07
2018-11-23T00:13:04.971Z,49.07
2018-11-23T00:15:34.931Z,46.30
2018-11-23T00:18:04.557Z,45.53
2018-11-23T00:20:34.047Z,44.67
2018-11-23T00:23:03.665Z,46.73
2018-11-23T00:25:32.999Z,47.70
2018-11-23T00:28:02.583Z,44.03
2018-11-23T00:30:32.092Z,42.83
2018-11-23T00:33:01.468Z,45.20
2018-11-23T00:35:31.517Z,44.57
2018-11-23T00:38:01.126Z,42.90
2018-11-23T00:40:31.649Z,45.87
2018-11-23T00:43:01.983Z,43.67
2018-11-23T00:45:31.387Z,44.83
2018-11-23T00:48:01.298Z,41.20
2018-11-23T00:50:30.708Z,42.33
2018-11-23T00:53:00.930Z,44.57
2018-11-23T00:55:30.664Z,45.87
2018-11-23T00:58:00.120Z,46.70
2018-11-23T01:00:31.739Z,49.17
2018-11-23T01:03:02.332Z,52.03
2018-11-23T01:05:31.730Z,48.87
2018-11-23T01:08:01.263Z,51.13
2018-11-23T01:10:31.285Z,44.67
2018-11-23T01:13:00.682Z,44.60
2018-11-23T01:15:30.122Z,47.30
2018-11-23T01:17:59.531Z,46.60
2018-11-23T01:20:29.368Z,46.60
2018-11-23T01:22:59.385Z,45.47
2018-11-23T01:25:29.261Z,45.83
2018-11-23T01:27:58.646Z,48.60
2018-11-23T01:30:29.836Z,42.27
2018-11-23T01:32:59.427Z,43.20
2018-11-23T01:35:28.864Z,45.87
2018-11-23T01:37:58.344Z,44.23
2018-11-23T01:40:29.206Z,44.57
2018-11-23T01:42:59.100Z,41.50
2018-11-23T01:45:28.649Z,42.87
2018-11-23T01:47:58.020Z,44.03
2018-11-23T01:50:28.802Z,38.90
2018-11-23T01:52:58.594Z,40.13
2018-11-23T01:55:28.173Z,41.13
2018-11-23T01:57:57.699Z,44.00
2018-11-23T02:00:28.847Z,42.23
2018-11-23T02:02:58.667Z,44.23
2018-11-23T02:05:28.035Z,43.87
2018-11-23T02:07:57.497Z,39.87
2018-11-23T02:10:27.058Z,40.37
2018-11-23T02:12:56.586Z,41.13
2018-11-23T02:15:26.023Z,39.33
2018-11-23T02:17:55.561Z,39.10
2018-11-23T02:20:25.198Z,42.17
2018-11-23T02:22:54.558Z,44.07
2018-11-23T02:25:23.914Z,41.77
2018-11-23T02:27:53.474Z,43.33
2018-11-23T02:30:24.411Z,42.97
2018-11-23T02:32:53.823Z,42.20
2018-11-23T02:35:23.416Z,46.97
2018-11-23T02:37:52.781Z,44.43
2018-11-23T02:40:22.302Z,44.40
2018-11-23T02:42:51.685Z,43.37
2018-11-23T02:45:22.563Z,38.97
2018-11-23T02:47:52.373Z,42.03
2018-11-23T02:50:21.870Z,41.57
2018-11-23T02:52:51.494Z,44.97
2018-11-23T02:55:21.603Z,45.60
2018-11-23T02:57:51.503Z,41.23
2018-11-23T03:00:22.076Z,45.00
2018-11-23T03:02:51.670Z,41.83
2018-11-23T03:05:22.565Z,46.03
2018-11-23T03:07:52.128Z,43.07
2018-11-23T03:10:21.485Z,41.77
2018-11-23T03:12:50.991Z,44.17
2018-11-23T03:15:21.322Z,45.93
2018-11-23T03:17:51.254Z,40.53
2018-11-23T03:20:22.229Z,44.00
2018-11-23T03:22:52.232Z,41.63
2018-11-23T03:25:21.627Z,45.73
2018-11-23T03:27:51.081Z,43.87
2018-11-23T03:30:21.899Z,42.23
2018-11-23T03:32:52.133Z,42.07
2018-11-23T03:35:22.998Z,39.13
2018-11-23T03:37:52.566Z,43.60
2018-11-23T03:40:21.946Z,41.83
2018-11-23T03:42:52.622Z,40.53
2018-11-23T03:45:22.233Z,39.78
2018-11-23T03:47:51.621Z,43.43
2018-11-23T03:50:21.166Z,40.83
2018-11-23T03:52:50.530Z,42.30
2018-11-23T03:55:20.069Z,43.13
2018-11-23T03:57:49.515Z,38.57
2018-11-23T04:00:20.492Z,40.67
2018-11-23T04:02:50.550Z,44.30
2018-11-23T04:05:20.158Z,41.17
2018-11-23T04:07:49.759Z,47.73
2018-11-23T04:10:19.364Z,41.60
2018-11-23T04:12:48.757Z,42.63
2018-11-23T04:15:18.148Z,43.70
2018-11-23T04:17:47.630Z,43.17
2018-11-23T04:20:17.830Z,37.53
2018-11-23T04:22:47.423Z,40.50
2018-11-23T04:25:16.913Z,42.10
2018-11-23T04:27:46.435Z,40.63
2018-11-23T04:30:16.904Z,39.03
2018-11-23T04:32:47.536Z,39.97
2018-11-23T04:35:18.242Z,37.07
2018-11-23T04:37:48.241Z,40.00
2018-11-23T04:40:18.803Z,39.53
2018-11-23T04:42:48.913Z,42.87
2018-11-23T04:45:18.325Z,42.33
2018-11-23T04:47:47.788Z,39.17
2018-11-23T04:50:17.766Z,40.23
2018-11-23T04:52:47.220Z,42.07
2018-11-23T04:55:16.678Z,41.23
2018-11-23T04:57:47.302Z,40.40
2018-11-23T05:00:17.041Z,37.27
2018-11-23T05:02:47.326Z,43.93
2018-11-23T05:05:16.816Z,39.70
2018-11-23T05:07:47.431Z,40.57
2018-11-23T05:10:17.823Z,41.13
2018-11-23T05:12:47.327Z,39.87
2018-11-23T05:15:17.796Z,39.23
2018-11-23T05:17:47.492Z,44.17
2018-11-23T05:20:17.449Z,40.13
2018-11-23T05:22:47.122Z,39.03
2018-11-23T05:25:17.791Z,39.07
2018-11-23T05:27:47.247Z,39.03
2018-11-23T05:30:19.233Z,38.33
2018-11-23T05:32:48.839Z,38.40
2018-11-23T05:35:18.945Z,40.30
2018-11-23T05:37:48.399Z,36.90
2018-11-23T05:40:20.234Z,37.90
2018-11-23T05:42:49.829Z,37.93
2018-11-23T05:45:20.576Z,36.20
2018-11-23T05:47:50.091Z,34.70
2018-11-23T05:50:22.049Z,40.47
2018-11-23T05:52:52.230Z,39.27
2018-11-23T05:55:21.657Z,34.10
2018-11-23T05:57:51.791Z,38.10
2018-11-23T06:00:25.016Z,39.37
2018-11-23T06:02:54.488Z,38.53
2018-11-23T06:05:23.965Z,37.47
2018-11-23T06:07:53.514Z,37.13
2018-11-23T06:10:23.296Z,38.87
2018-11-23T06:12:52.846Z,39.13
2018-11-23T06:15:23.698Z,38.73
2018-11-23T06:17:54.405Z,38.03
2018-11-23T06:20:25.305Z,41.67
2018-11-23T06:22:55.473Z,37.03
2018-11-23T06:25:32.866Z,41.47
2018-11-23T06:28:02.344Z,35.53
2018-11-23T06:30:31.912Z,36.07
2018-11-23T06:33:18.366Z,35.80
2018-11-23T06:35:47.996Z,41.00
2018-11-23T06:38:17.478Z,37.23
2018-11-23T06:40:47.594Z,36.57
2018-11-23T06:43:17.946Z,38.73
2018-11-23T06:45:47.528Z,42.47
2018-11-23T06:48:16.951Z,38.40
2018-11-23T06:50:46.439Z,38.10
2018-11-23T06:53:15.945Z,38.83
2018-11-23T06:55:45.382Z,40.43
2018-11-23T06:58:15.680Z,43.23
2018-11-23T07:00:45.702Z,38.40
2018-11-23T07:03:15.809Z,37.47
2018-11-23T07:05:45.253Z,38.83
2018-11-23T07:08:14.766Z,39.60
2018-11-23T07:10:44.159Z,37.63
2018-11-23T07:13:13.602Z,37.90
2018-11-23T07:15:43.080Z,40.67
2018-11-23T07:18:12.623Z,38.17
2018-11-23T07:20:42.003Z,36.30
2018-11-23T07:23:11.426Z,36.40
2018-11-23T07:25:40.803Z,36.40
2018-11-23T07:28:15.424Z,34.73
2018-11-23T07:30:40.848Z,33.73
2018-11-23T07:33:10.295Z,36.30
2018-11-23T07:35:39.775Z,37.33
2018-11-23T07:38:09.173Z,33.10
2018-11-23T07:41:57.408Z,33.07
2018-11-23T07:44:26.937Z,35.23
2018-11-23T07:46:56.833Z,33.97
2018-11-23T07:49:26.302Z,32.57
2018-11-23T07:51:55.844Z,35.10
2018-11-23T07:54:25.193Z,32.23
2018-11-23T07:56:54.558Z,30.43
2018-11-23T07:59:23.895Z,32.07
2018-11-23T08:01:54.542Z,30.90
2018-11-23T08:04:23.090Z,28.53
2018-11-23T08:06:52.531Z,32.03
2018-11-23T08:09:22.207Z,31.43
2018-11-23T08:11:52.002Z,28.63
2018-11-23T08:14:21.934Z,28.80
2018-11-23T08:16:51.446Z,29.10
2018-11-23T08:19:20.768Z,26.73
2018-11-23T08:21:50.267Z,20.77
2018-11-23T08:24:19.694Z,18.37
2018-11-23T08:26:49.362Z,15.80
2018-11-23T08:29:18.776Z,15.07
2018-11-23T08:31:48.195Z,15.33
2018-11-23T08:34:17.550Z,15.60
2018-11-23T08:36:47.109Z,15.03
2018-11-23T08:39:17.118Z,18.00
2018-11-23T08:41:46.534Z,17.30
2018-11-23T08:44:15.950Z,18.23
2018-11-23T08:46:45.339Z,15.33
2018-11-23T08:49:15.632Z,17.00
2018-11-23T08:51:44.112Z,16.23
2018-11-23T08:54:14.424Z,17.20
2018-11-23T08:56:43.769Z,16.57
2018-11-23T08:59:13.379Z,15.87
2018-11-23T09:01:42.898Z,17.13
2018-11-23T09:04:12.218Z,13.90
2018-11-23T09:06:41.565Z,15.70
2018-11-23T09:09:11.935Z,14.37
2018-11-23T09:11:41.463Z,11.93
2018-11-23T09:14:11.702Z,12.97
2018-11-23T09:16:41.056Z,14.20
2018-11-23T09:19:10.505Z,10.80
2018-11-23T09:21:39.903Z,12.03
2018-11-23T09:24:09.341Z,15.70
2018-11-23T09:26:38.885Z,12.07
2018-11-23T09:29:08.353Z,10.17
2018-11-23T09:31:37.911Z,11.07
2018-11-23T09:34:07.333Z,12.00
2018-11-23T09:36:36.842Z,11.20
2018-11-23T09:39:08.089Z,10.20
2018-11-23T09:41:37.696Z,9.57
2018-11-23T09:44:07.314Z,13.50
2018-11-23T09:46:36.669Z,13.03
2018-11-23T09:49:06.317Z,12.57
2018-11-23T09:51:35.866Z,13.20
2018-11-23T09:54:05.309Z,14.20
2018-11-23T09:56:34.863Z,11.73
2018-11-23T09:59:04.388Z,12.50
2018-11-23T10:01:33.742Z,13.33
2018-11-23T10:04:03.219Z,11.80
2018-11-23T10:06:32.683Z,12.60
2018-11-23T10:09:02.141Z,11.53
2018-11-23T10:11:32.130Z,12.67
2018-11-23T10:14:01.529Z,12.23
2018-11-23T10:16:31.082Z,12.30
2018-11-23T10:19:00.464Z,12.67
2018-11-23T10:21:29.994Z,12.57
2018-11-23T10:23:59.997Z,11.63
2018-11-23T10:26:29.489Z,13.47
2018-11-23T10:28:59.444Z,12.43
2018-11-23T10:31:28.915Z,16.07
2018-11-23T10:33:58.373Z,13.10
2018-11-23T10:36:27.822Z,14.33
2018-11-23T10:38:57.226Z,13.90
2018-11-23T10:41:26.760Z,14.43
2018-11-23T10:43:57.127Z,14.67
2018-11-23T10:46:26.609Z,15.37
2018-11-23T10:48:55.978Z,16.13
2018-11-23T10:51:25.318Z,15.63
2018-11-23T10:53:54.682Z,13.70
2018-11-23T10:56:24.203Z,17.33
2018-11-23T10:58:53.736Z,15.93
2018-11-23T11:01:28.426Z,13.13
2018-11-23T11:03:59.927Z,13.43
2018-11-23T11:06:34.620Z,14.47
2018-11-23T11:09:04.854Z,15.37
2018-11-23T11:11:34.299Z,15.03
2018-11-23T11:14:03.818Z,15.60
2018-11-23T11:16:33.435Z,18.40
2018-11-23T11:19:03.005Z,15.43
2018-11-23T11:21:32.515Z,15.00
2018-11-23T11:24:02.064Z,15.40
2018-11-23T11:26:32.171Z,15.67
2018-11-23T11:29:01.830Z,15.37
2018-11-23T11:31:31.381Z,13.87
2018-11-23T11:34:00.832Z,15.10
2018-11-23T11:36:30.315Z,13.87
2018-11-23T11:38:59.787Z,14.73
2018-11-23T11:41:29.191Z,13.63
2018-11-23T11:43:58.692Z,15.07
2018-11-23T11:46:28.082Z,14.70
2018-11-23T11:48:57.601Z,16.27
2018-11-23T11:51:27.449Z,14.23
2018-11-23T11:53:56.837Z,15.83
2018-11-23T11:56:26.246Z,15.23
2018-11-23T11:58:55.778Z,15.07
2018-11-23T12:01:26.234Z,15.53
2018-11-23T12:03:57.245Z,16.00
2018-11-23T12:06:26.622Z,15.23
2018-11-23T12:08:56.541Z,14.77
2018-11-23T12:11:25.980Z,14.60
2018-11-23T12:13:55.337Z,14.57
2018-11-23T12:16:25.424Z,15.63
2018-11-23T12:18:54.861Z,14.23
2018-11-23T12:21:24.300Z,14.57
2018-11-23T12:23:53.603Z,13.10
2018-11-23T12:26:23.025Z,14.60
2018-11-23T12:28:52.619Z,14.07
2018-11-23T12:31:22.144Z,14.70
2018-11-23T12:33:51.656Z,14.10
2018-11-23T12:36:22.247Z,12.87
2018-11-23T12:38:51.616Z,12.63
2018-11-23T12:41:21.074Z,16.47
2018-11-23T12:43:50.817Z,13.93
2018-11-23T12:46:20.299Z,17.10
2018-11-23T12:48:49.641Z,14.00
2018-11-23T12:51:19.085Z,13.47
2018-11-23T12:53:48.506Z,13.17
2018-11-23T12:56:18.810Z,13.20
2018-11-23T12:58:48.287Z,14.93
2018-11-23T13:01:17.773Z,12.80
2018-11-23T13:03:48.103Z,14.33
2018-11-23T13:06:17.905Z,12.83
2018-11-23T13:08:47.410Z,13.00
2018-11-23T13:11:16.793Z,14.20
2018-11-23T13:13:46.342Z,14.93
2018-11-23T13:16:15.734Z,11.80
2018-11-23T13:18:45.201Z,13.93
2018-11-23T13:21:14.746Z,14.30
2018-11-23T13:23:44.108Z,13.13
2018-11-23T13:26:13.674Z,12.83
2018-11-23T13:28:43.345Z,13.80
2018-11-23T13:31:13.034Z,14.93
2018-11-23T13:33:42.569Z,12.83
2018-11-23T13:36:12.084Z,13.53
2018-11-23T13:38:41.451Z,12.23
2018-11-23T13:41:11.984Z,12.57
2018-11-23T13:43:41.438Z,12.90
2018-11-23T13:46:11.381Z,14.23
2018-11-23T13:48:40.910Z,14.10
2018-11-23T13:51:10.620Z,12.60
2018-11-23T13:53:40.043Z,13.57
2018-11-23T13:56:09.979Z,13.20
2018-11-23T13:58:39.561Z,14.17
2018-11-23T14:01:09.053Z,12.23
2018-11-23T14:03:38.460Z,14.63
2018-11-23T14:06:08.398Z,12.97
2018-11-23T14:08:37.897Z,14.43
2018-11-23T14:11:07.302Z,16.37
2018-11-23T14:13:36.726Z,14.87
2018-11-23T14:16:06.917Z,16.30
2018-11-23T14:18:36.448Z,16.47
2018-11-23T14:21:06.384Z,16.83
2018-11-23T14:23:35.826Z,17.20
2018-11-23T14:26:05.510Z,20.27
2018-11-23T14:28:35.649Z,17.90
2018-11-23T14:31:05.335Z,16.70
2018-11-23T14:33:35.007Z,18.30
2018-11-23T14:36:04.357Z,17.67
2018-11-23T14:38:33.869Z,16.07
2018-11-23T14:41:03.234Z,19.17
2018-11-23T14:43:32.675Z,20.20
2018-11-23T14:46:02.270Z,20.53
2018-11-23T14:48:31.647Z,18.57
2018-11-23T14:51:01.054Z,19.97
2018-11-23T14:53:30.487Z,21.53
2018-11-23T14:55:59.902Z,17.33
2018-11-23T14:58:30.041Z,18.87
2018-11-23T15:00:59.549Z,19.70
2018-11-23T15:03:29.050Z,18.33
2018-11-23T15:05:58.555Z,18.30
2018-11-23T15:08:28.010Z,18.83
2018-11-23T15:10:57.513Z,17.37
2018-11-23T15:13:26.891Z,20.10
2018-11-23T15:15:56.462Z,18.57
2018-11-23T15:18:25.953Z,18.80
2018-11-23T15:20:55.558Z,17.80
2018-11-23T15:23:25.214Z,18.50
2018-11-23T15:25:54.815Z,19.17
2018-11-23T15:28:24.269Z,20.50
2018-11-23T15:30:53.754Z,20.37
2018-11-23T15:33:24.077Z,20.33
2018-11-23T15:35:53.677Z,19.53
2018-11-23T15:38:24.954Z,19.37
2018-11-23T15:40:54.562Z,19.80
2018-11-23T15:43:24.000Z,18.50
2018-11-23T15:45:53.420Z,19.37
2018-11-23T15:48:22.795Z,19.23
2018-11-23T15:50:52.284Z,19.30
2018-11-23T15:53:21.886Z,19.13
2018-11-23T15:55:51.389Z,19.07
2018-11-23T15:58:20.901Z,21.90
2018-11-23T16:00:50.398Z,20.47
2018-11-23T16:03:19.920Z,19.47
2018-11-23T16:05:50.361Z,20.80
2018-11-23T16:08:21.144Z,20.20
2018-11-23T16:10:50.561Z,21.80
2018-11-23T16:13:20.145Z,19.90
2018-11-23T16:15:49.856Z,21.00
2018-11-23T16:18:19.353Z,21.57
2018-11-23T16:20:48.783Z,21.20
2018-11-23T16:23:19.821Z,22.27
2018-11-23T16:25:49.997Z,21.47
2018-11-23T16:28:19.462Z,21.53
2018-11-23T16:30:50.204Z,22.53
2018-11-23T16:33:21.194Z,20.60
2018-11-23T16:35:50.608Z,21.17
2018-11-23T16:38:21.802Z,21.90
2018-11-23T16:40:53.846Z,20.97
2018-11-23T16:43:23.342Z,22.17
2018-11-23T16:45:53.047Z,23.50
2018-11-23T16:48:23.370Z,21.93
2018-11-23T16:50:53.018Z,21.97
2018-11-23T16:53:22.604Z,23.00
2018-11-23T16:55:52.333Z,22.87
2018-11-23T16:58:21.915Z,22.80
2018-11-23T17:00:51.583Z,24.27
2018-11-23T17:03:22.310Z,23.13
2018-11-23T17:05:54.225Z,22.73
2018-11-23T17:08:23.744Z,23.50
2018-11-23T17:10:53.526Z,23.87
2018-11-23T17:13:22.995Z,25.00
2018-11-23T17:15:52.744Z,24.87
2018-11-23T17:18:22.306Z,22.37
2018-11-23T17:20:51.828Z,23.93
2018-11-23T17:23:21.278Z,24.77
2018-11-23T17:25:50.876Z,22.70
2018-11-23T17:28:20.348Z,25.27
2018-11-23T17:30:49.763Z,24.60
2018-11-23T17:33:19.403Z,21.07
2018-11-23T17:35:48.863Z,26.10
2018-11-23T17:38:18.335Z,25.43
2018-11-23T17:40:47.784Z,26.53
2018-11-23T17:43:17.273Z,23.43
2018-11-23T17:45:46.767Z,25.67
2018-11-23T17:48:16.186Z,24.77
2018-11-23T17:50:45.697Z,25.33
2018-11-23T17:53:15.146Z,25.57
2018-11-23T17:55:44.685Z,28.00
2018-11-23T17:58:14.153Z,26.47
2018-11-23T18:00:44.526Z,26.70
2018-11-23T18:03:13.922Z,28.23
2018-11-23T18:05:43.605Z,26.30
2018-11-23T18:08:13.052Z,27.37
2018-11-23T18:10:43.152Z,25.83
2018-11-23T18:13:12.528Z,25.90
2018-11-23T18:15:42.713Z,28.37
2018-11-23T18:18:13.152Z,27.20
2018-11-23T18:20:42.767Z,28.43
2018-11-23T18:23:12.146Z,27.30
2018-11-23T18:25:41.824Z,25.27
2018-11-23T18:28:11.808Z,29.40
2018-11-23T18:30:41.921Z,27.73
2018-11-23T18:33:11.295Z,28.60
2018-11-23T18:35:40.790Z,29.03
2018-11-23T18:38:10.468Z,28.40
2018-11-23T18:40:40.454Z,30.10
2018-11-23T18:43:10.065Z,32.27
2018-11-23T18:45:39.602Z,28.50
2018-11-23T18:48:09.213Z,27.00
2018-11-23T18:50:38.658Z,29.20
2018-11-23T18:53:08.074Z,29.60
2018-11-23T18:55:37.661Z,30.73
2018-11-23T18:58:07.311Z,30.37
2018-11-23T19:00:36.853Z,28.67
2018-11-23T19:03:06.941Z,28.60
2018-11-23T19:05:36.427Z,28.77
2018-11-23T19:08:06.490Z,27.30
2018-11-23T19:10:36.031Z,27.57
2018-11-23T19:13:06.361Z,28.13
2018-11-23T19:15:36.089Z,28.77
2018-11-23T19:18:05.725Z,29.07
2018-11-23T19:20:35.223Z,24.87
2018-11-23T19:23:04.648Z,24.57
2018-11-23T19:25:34.195Z,27.37
2018-11-23T19:28:03.857Z,26.00
2018-11-23T19:30:33.763Z,25.83
2018-11-23T19:33:03.300Z,26.00
2018-11-23T19:35:32.938Z,24.87
2018-11-23T19:38:03.310Z,27.40
2018-11-23T19:40:32.934Z,25.13
2018-11-23T19:43:02.505Z,24.37
2018-11-23T19:45:32.189Z,22.97
2018-11-23T19:48:01.751Z,24.97
2018-11-23T19:50:31.201Z,24.80
2018-11-23T19:53:00.676Z,28.47
2018-11-23T19:55:30.138Z,25.47
2018-11-23T19:57:59.686Z,23.70
2018-11-23T20:00:30.132Z,27.40
2018-11-23T20:03:00.414Z,25.97
2018-11-23T20:05:29.936Z,24.33
2018-11-23T20:07:59.514Z,23.70
2018-11-23T20:10:29.172Z,24.90
2018-11-23T20:12:59.051Z,27.33
2018-11-23T20:15:28.725Z,25.60
2018-11-23T20:17:58.152Z,27.10
2018-11-23T20:20:27.797Z,23.50
2018-11-23T20:22:57.645Z,23.17
2018-11-23T20:25:27.234Z,24.80
2018-11-23T20:27:57.013Z,27.33
2018-11-23T20:30:26.629Z,26.83
2018-11-23T20:32:56.909Z,25.40
2018-11-23T20:35:26.998Z,28.57
2018-11-23T20:37:56.424Z,25.90
2018-11-23T20:40:25.862Z,27.67
2018-11-23T20:42:55.323Z,24.67
2018-11-23T20:45:24.796Z,26.43
2018-11-23T20:47:54.439Z,23.80
2018-11-23T20:50:24.016Z,22.47
2018-11-23T20:52:53.518Z,26.00
2018-11-23T20:55:23.673Z,25.00
2018-11-23T20:57:53.481Z,23.07
2018-11-23T21:00:23.109Z,24.40
2018-11-23T21:02:53.233Z,25.47
2018-11-23T21:05:23.369Z,25.50
2018-11-23T21:07:52.932Z,23.77
2018-11-23T21:10:26.383Z,27.97
2018-11-23T21:12:56.353Z,27.33
2018-11-23T21:15:32.836Z,29.87
2018-11-23T21:18:04.310Z,29.87
2018-11-23T21:20:33.946Z,31.43
2018-11-23T21:23:03.411Z,30.53
2018-11-23T21:25:32.960Z,31.50
2018-11-23T21:28:02.426Z,30.27
2018-11-23T21:30:31.922Z,29.30
2018-11-23T21:33:01.577Z,31.63
2018-11-23T21:35:30.980Z,28.30
2018-11-23T21:38:00.687Z,27.03
2018-11-23T21:40:30.317Z,30.80
2018-11-23T21:42:59.927Z,28.40
2018-11-23T21:45:29.348Z,27.67
2018-11-23T21:47:59.164Z,27.03
2018-11-23T21:50:28.640Z,28.47
2018-11-23T21:52:58.169Z,28.63
2018-11-23T21:55:28.423Z,31.47
2018-11-23T21:57:58.114Z,34.77
2018-11-23T22:00:27.496Z,34.27
2018-11-23T22:02:57.021Z,29.30
2018-11-23T22:05:26.431Z,28.80
2018-11-23T22:07:55.948Z,30.33
2018-11-23T22:10:25.322Z,28.43
2018-11-23T22:12:54.810Z,28.03
2018-11-23T22:15:25.337Z,28.63
2018-11-23T22:17:57.127Z,27.33
2018-11-23T22:20:27.085Z,26.83
2018-11-23T22:22:56.721Z,23.77
2018-11-23T22:25:26.157Z,25.80
2018-11-23T22:27:55.795Z,27.33
2018-11-23T22:30:29.225Z,25.83
2018-11-23T22:32:59.082Z,25.97
2018-11-23T22:35:30.210Z,26.90
2018-11-23T22:37:59.626Z,25.57
2018-11-23T22:40:28.992Z,23.60
2018-11-23T22:42:59.697Z,24.33
2018-11-23T22:45:29.189Z,25.80
2018-11-23T22:47:58.861Z,21.83
2018-11-23T22:50:28.326Z,25.80
2018-11-23T22:52:58.005Z,24.50
2018-11-23T22:55:27.443Z,24.03
2018-11-23T22:57:57.054Z,21.73
2018-11-23T23:00:32.703Z,25.47
2018-11-23T23:03:02.255Z,23.90
2018-11-23T23:05:32.258Z,21.87
2018-11-23T23:08:02.082Z,21.23
2018-11-23T23:10:31.661Z,26.67
2018-11-23T23:13:01.152Z,24.80
2018-11-23T23:15:30.666Z,24.13
2018-11-23T23:18:00.641Z,24.80
2018-11-23T23:20:30.202Z,23.13
2018-11-23T23:22:59.850Z,23.90
2018-11-23T23:25:31.166Z,24.73
2018-11-23T23:28:00.796Z,22.00
2018-11-23T23:30:30.397Z,26.90
2018-11-23T23:33:00.139Z,24.47
2018-11-23T23:35:29.682Z,24.43
2018-11-23T23:37:59.093Z,23.60
2018-11-23T23:40:28.639Z,24.23
2018-11-23T23:42:58.134Z,26.10
2018-11-23T23:45:27.539Z,24.97
2018-11-23T23:47:57.412Z,26.37
2018-11-23T23:50:26.768Z,24.30
2018-11-23T23:52:56.253Z,24.37
2018-11-23T23:55:25.595Z,24.10
2018-11-23T23:57:55.153Z,25.80
